Time;durP1;ratioP1;P1;durP2;ratioP2;P2;SDS_P1;SDS_P2;PMS_P1;PMS_P2;Temp;Humidity;BMP_temperature;BMP_pressure;BME280_temperature;BME280_humidity;BME280_pressure;Samples;Min_cycle;Max_cycle;Signal;HPM_P1;HPM_P2
2022/10/05 00:00:14;;;;;;;9.87;7.07;;;16.70;24.10;;;;;;4978796;28;20648;-85
2022/10/05 00:02:43;;;;;;;9.20;7.03;;;16.70;23.00;;;;;;4977666;28;20580;-84
2022/10/05 00:05:44;;;;;;;10.70;6.40;;;16.70;22.40;;;;;;4975597;28;20231;-85
2022/10/05 00:08:12;;;;;;;9.40;6.83;;;16.60;26.90;;;;;;4979670;28;20179;-84
2022/10/05 00:10:40;;;;;;;9.87;6.70;;;16.50;28.70;;;;;;4980229;28;20668;-83
2022/10/05 00:13:16;;;;;;;11.73;6.30;;;16.50;30.20;;;;;;4977583;28;20218;-83
2022/10/05 00:15:42;;;;;;;12.87;7.50;;;16.70;27.70;;;;;;4977811;28;20289;-83
2022/10/05 00:18:21;;;;;;;8.63;6.70;;;16.60;28.20;;;;;;4982142;28;20175;-84
2022/10/05 00:20:48;;;;;;;8.67;6.20;;;16.50;30.20;;;;;;4994670;28;20208;-86
2022/10/05 00:23:27;;;;;;;7.97;6.67;;;16.60;29.30;;;;;;4995914;28;20168;-85
2022/10/05 00:25:52;;;;;;;8.43;6.63;;;16.50;29.30;;;;;;4994502;28;20608;-89
2022/10/05 00:28:28;;;;;;;7.70;6.67;;;16.60;30.10;;;;;;4995340;28;20329;-89
2022/10/05 00:30:56;;;;;;;9.37;6.70;;;16.60;30.20;;;;;;4994728;28;20186;-86
2022/10/05 00:33:22;;;;;;;10.47;6.10;;;16.70;28.90;;;;;;4983629;28;20650;-85
2022/10/05 00:35:49;;;;;;;9.10;6.57;;;16.70;27.10;;;;;;4975183;28;20249;-85
2022/10/05 00:38:15;;;;;;;8.63;6.93;;;16.60;27.30;;;;;;4975826;28;20184;-86
2022/10/05 00:41:15;;;;;;;8.33;6.50;;;16.50;32.20;;;;;;4995492;28;20183;-91
2022/10/05 00:44:03;;;;;;;8.80;6.53;;;16.40;37.40;;;;;;4995782;28;20178;-88
2022/10/05 00:46:39;;;;;;;11.87;7.10;;;16.30;42.20;;;;;;4994270;28;20188;-85
2022/10/05 00:49:32;;;;;;;9.70;6.73;;;16.50;41.50;;;;;;4983205;28;20701;-84
2022/10/05 00:52:43;;;;;;;10.57;6.83;;;16.40;41.50;;;;;;4975744;28;20198;-85
2022/10/05 00:55:18;;;;;;;11.03;7.57;;;16.30;44.50;;;;;;5002357;28;20270;-84
2022/10/05 00:57:53;;;;;;;8.00;6.13;;;16.40;46.40;;;;;;4974915;28;20213;-84
2022/10/05 01:00:24;;;;;;;8.63;6.37;;;16.30;49.30;;;;;;5006445;28;20267;-84
2022/10/05 01:03:18;;;;;;;9.97;7.13;;;16.30;50.80;;;;;;4975707;28;20181;-84
2022/10/05 01:06:25;;;;;;;9.40;7.03;;;16.20;52.20;;;;;;4994737;28;20526;-84
2022/10/05 01:09:13;;;;;;;10.00;6.90;;;16.20;56.20;;;;;;4977395;28;20183;-85
2022/10/05 01:11:43;;;;;;;8.27;6.93;;;16.20;55.60;;;;;;4978281;28;20177;-87
2022/10/05 01:14:31;;;;;;;9.70;7.47;;;16.10;58.90;;;;;;4988136;28;20648;-85
2022/10/05 01:17:24;;;;;;;7.87;6.87;;;16.10;61.30;;;;;;4994721;28;20202;-87
2022/10/05 01:20:30;;;;;;;10.03;7.50;;;16.00;62.60;;;;;;4966534;28;20245;-84
2022/10/05 01:22:55;;;;;;;10.83;7.53;;;16.10;63.90;;;;;;4978299;28;20175;-85
2022/10/05 01:25:35;;;;;;;10.10;7.40;;;16.10;63.80;;;;;;4969923;28;20298;-87
2022/10/05 01:28:28;;;;;;;9.70;7.20;;;16.10;63.90;;;;;;4954719;28;20227;-84
2022/10/05 01:31:29;;;;;;;9.47;7.53;;;16.10;64.30;;;;;;4987259;28;20203;-84
2022/10/05 01:33:59;;;;;;;8.73;6.83;;;16.00;67.40;;;;;;4964157;28;20625;-85
2022/10/05 01:36:36;;;;;;;10.90;7.63;;;16.20;67.30;;;;;;4956552;29;20208;-83
2022/10/05 01:39:38;;;;;;;9.57;6.90;;;16.00;68.20;;;;;;4980187;28;20247;-83
2022/10/05 01:42:25;;;;;;;10.93;7.70;;;15.90;69.70;;;;;;5012199;28;20211;-86
2022/10/05 01:45:15;;;;;;;9.00;6.93;;;15.90;72.20;;;;;;4994583;28;20204;-82
2022/10/05 01:47:52;;;;;;;9.43;8.10;;;15.80;74.60;;;;;;4996135;28;20167;-86
2022/10/05 01:51:09;;;;;;;9.10;6.63;;;15.80;78.00;;;;;;4997881;28;20156;-85
2022/10/05 01:53:40;;;;;;;8.47;7.50;;;15.70;79.00;;;;;;5006696;28;20176;-87
2022/10/05 01:56:22;;;;;;;9.97;8.03;;;15.70;80.50;;;;;;5022102;28;20219;-84
2022/10/05 01:59:15;;;;;;;10.47;7.30;;;15.80;81.00;;;;;;4990114;28;20174;-85
2022/10/05 02:01:55;;;;;;;9.67;7.13;;;15.80;81.10;;;;;;4987584;28;20210;-85
2022/10/05 02:04:32;;;;;;;8.97;7.53;;;15.70;82.70;;;;;;4980294;28;20175;-84
2022/10/05 02:07:02;;;;;;;10.70;7.57;;;15.70;84.20;;;;;;4974878;28;20176;-84
2022/10/05 02:09:32;;;;;;;9.77;7.40;;;15.60;85.10;;;;;;4974199;28;20199;-85
2022/10/05 02:12:09;;;;;;;10.50;7.47;;;15.70;87.20;;;;;;5007107;28;20204;-85
2022/10/05 02:14:40;;;;;;;9.70;7.20;;;15.40;90.10;;;;;;4975824;28;20167;-86
2022/10/05 02:17:40;;;;;;;10.80;8.00;;;15.40;91.50;;;;;;4977985;28;20175;-86
2022/10/05 02:20:10;;;;;;;12.63;8.00;;;15.40;92.20;;;;;;4981094;28;20668;-82
2022/10/05 02:22:48;;;;;;;11.80;8.03;;;15.40;92.70;;;;;;4979920;28;20160;-84
2022/10/05 02:25:26;;;;;;;12.17;8.37;;;15.30;92.90;;;;;;4979567;28;20179;-84
2022/10/05 02:28:03;;;;;;;9.60;7.97;;;15.30;93.20;;;;;;4993869;28;20620;-87
2022/10/05 02:30:32;;;;;;;12.07;8.90;;;15.20;94.00;;;;;;4979324;28;20187;-85
2022/10/05 02:33:12;;;;;;;11.63;8.70;;;15.20;95.30;;;;;;4978764;28;20640;-86
2022/10/05 02:35:41;;;;;;;10.70;8.43;;;15.20;96.40;;;;;;4975619;28;20221;-85
2022/10/05 02:38:56;;;;;;;12.13;8.87;;;15.30;96.60;;;;;;4976955;28;20183;-83
2022/10/05 02:41:41;;;;;;;13.27;9.23;;;15.30;94.90;;;;;;4976927;28;20179;-85
2022/10/05 02:44:35;;;;;;;13.07;8.80;;;15.30;94.30;;;;;;4977487;28;20246;-85
2022/10/05 02:47:28;;;;;;;12.20;9.53;;;15.30;93.40;;;;;;5010165;28;20211;-84
2022/10/05 02:50:30;;;;;;;10.67;8.90;;;15.20;93.60;;;;;;5010682;28;20621;-85
2022/10/05 02:53:15;;;;;;;11.00;9.00;;;15.20;94.70;;;;;;4989861;28;20201;-84
2022/10/05 02:56:14;;;;;;;11.87;9.37;;;15.20;94.80;;;;;;4996891;28;20240;-85
2022/10/05 02:59:07;;;;;;;12.83;8.80;;;15.20;93.80;;;;;;4996540;28;20175;-84
2022/10/05 03:01:50;;;;;;;10.87;7.97;;;15.10;94.50;;;;;;4995935;28;20171;-84
2022/10/05 03:04:28;;;;;;;10.53;8.80;;;15.10;94.40;;;;;;4996255;28;20167;-88
2022/10/05 03:07:13;;;;;;;10.67;8.63;;;15.10;95.30;;;;;;4997460;28;20182;-87
2022/10/05 03:09:48;;;;;;;9.47;7.37;;;15.10;95.00;;;;;;5003743;28;20282;-83
2022/10/05 03:13:04;;;;;;;9.20;7.40;;;15.10;94.10;;;;;;5013740;28;20198;-85
2022/10/05 03:15:40;;;;;;;11.93;7.27;;;15.10;93.70;;;;;;4982993;28;20218;-89
2022/10/05 03:18:27;;;;;;;9.53;6.97;;;15.10;92.70;;;;;;4973995;28;20179;-86
2022/10/05 03:21:06;;;;;;;10.33;6.90;;;15.20;91.80;;;;;;4987347;28;20203;-83
2022/10/05 03:24:04;;;;;;;7.97;6.90;;;15.30;91.20;;;;;;4991552;28;20195;-88
2022/10/05 03:27:14;;;;;;;9.97;6.90;;;15.30;90.80;;;;;;4988198;28;20164;-86
2022/10/05 03:30:03;;;;;;;9.70;7.03;;;15.30;91.10;;;;;;4995498;28;20173;-86
2022/10/05 03:32:43;;;;;;;8.70;6.23;;;15.50;89.70;;;;;;4986083;28;20183;-89
2022/10/05 03:35:47;;;;;;;9.93;7.33;;;15.30;90.00;;;;;;4959288;28;20211;-88
2022/10/05 03:38:18;;;;;;;11.40;6.67;;;15.40;89.10;;;;;;4964136;28;20235;-88
2022/10/05 03:40:56;;;;;;;10.57;6.43;;;15.30;88.70;;;;;;4966978;28;20180;-84
2022/10/05 03:43:25;;;;;;;10.17;6.33;;;15.30;89.50;;;;;;4968653;28;20180;-89
2022/10/05 03:46:03;;;;;;;10.37;5.77;;;15.30;85.30;;;;;;4974896;28;20207;-89
2022/10/05 03:48:44;;;;;;;9.10;5.93;;;15.30;80.60;;;;;;4996602;28;20264;-89
2022/10/05 03:51:33;;;;;;;7.30;5.00;;;15.30;80.20;;;;;;4957929;28;20215;-86
2022/10/05 03:54:19;;;;;;;6.67;4.90;;;15.30;75.70;;;;;;4966360;28;20179;-88
2022/10/05 03:57:04;;;;;;;6.83;4.83;;;15.40;65.60;;;;;;4959435;28;20691;-88
2022/10/05 04:00:14;;;;;;;7.10;4.60;;;15.40;63.40;;;;;;4959670;29;20210;-90
2022/10/05 04:03:12;;;;;;;6.80;4.67;;;15.40;59.20;;;;;;4960244;28;20180;-87
2022/10/05 04:05:49;;;;;;;5.13;4.20;;;15.50;59.10;;;;;;4973424;28;20179;-83
2022/10/05 04:08:53;;;;;;;6.27;4.17;;;15.50;56.40;;;;;;4967453;28;20270;-85
2022/10/05 04:11:27;;;;;;;7.37;4.20;;;15.60;54.30;;;;;;4973147;28;20180;-86
2022/10/05 04:14:14;;;;;;;5.10;4.00;;;15.60;52.50;;;;;;4968197;28;20176;-90
2022/10/05 04:17:05;;;;;;;6.33;3.87;;;15.60;50.80;;;;;;4958936;28;20214;-90
2022/10/05 04:19:52;;;;;;;6.90;4.40;;;15.60;49.40;;;;;;4959806;28;20165;-90
2022/10/05 04:22:36;;;;;;;6.13;4.10;;;15.60;47.40;;;;;;4961947;28;20530;-89
2022/10/05 04:25:36;;;;;;;7.77;4.47;;;15.70;48.20;;;;;;4958173;28;20179;-88
2022/10/05 04:28:12;;;;;;;6.87;3.83;;;15.70;47.70;;;;;;4960933;28;20172;-86
2022/10/05 04:30:41;;;;;;;5.70;4.13;;;15.80;46.60;;;;;;4968807;28;20172;-86
2022/10/05 04:33:12;;;;;;;7.73;4.70;;;15.70;45.10;;;;;;4969535;28;20195;-91
2022/10/05 04:35:51;;;;;;;11.83;4.97;;;15.70;45.30;;;;;;4961011;28;20695;-84
2022/10/05 04:38:33;;;;;;;9.80;4.50;;;15.70;44.40;;;;;;4976048;28;20191;-85
2022/10/05 04:41:26;;;;;;;8.37;5.13;;;15.70;45.50;;;;;;4976255;28;20546;-85
2022/10/05 04:44:15;;;;;;;6.33;4.70;;;15.60;47.40;;;;;;5008239;28;20271;-84
2022/10/05 04:46:56;;;;;;;6.43;4.60;;;15.60;48.80;;;;;;4979404;28;20674;-85
2022/10/05 04:49:42;;;;;;;7.60;4.73;;;15.60;48.80;;;;;;4978475;28;20819;-83
2022/10/05 04:52:34;;;;;;;8.40;5.27;;;15.60;49.50;;;;;;5007608;28;20263;-87
2022/10/05 04:55:39;;;;;;;8.90;4.73;;;15.70;47.30;;;;;;5007392;28;20233;-86
2022/10/05 04:58:35;;;;;;;7.00;4.37;;;15.70;47.00;;;;;;4984695;28;20176;-85
2022/10/05 05:01:25;;;;;;;7.07;4.60;;;15.60;47.00;;;;;;4975998;28;20187;-84
2022/10/05 05:04:17;;;;;;;6.53;4.40;;;15.70;47.00;;;;;;5006664;28;20546;-84
2022/10/05 05:06:55;;;;;;;5.77;4.40;;;15.70;46.00;;;;;;4976521;28;20184;-84
2022/10/05 05:09:33;;;;;;;7.37;4.33;;;15.70;45.10;;;;;;5009861;28;20187;-83
2022/10/05 05:12:09;;;;;;;5.67;4.13;;;15.70;44.70;;;;;;4977933;28;20226;-84
2022/10/05 05:14:53;;;;;;;5.43;4.70;;;15.70;45.00;;;;;;5008796;28;20178;-86
2022/10/05 05:17:30;;;;;;;7.00;4.20;;;15.70;44.50;;;;;;5007290;28;20176;-84
2022/10/05 05:20:26;;;;;;;6.83;4.40;;;15.80;43.70;;;;;;5006327;28;20204;-85
2022/10/05 05:23:21;;;;;;;6.53;4.10;;;15.80;43.30;;;;;;4974008;28;20648;-86
2022/10/05 05:25:58;;;;;;;6.70;3.73;;;15.80;42.80;;;;;;4976201;28;20550;-89
2022/10/05 05:28:30;;;;;;;7.07;3.90;;;15.80;42.20;;;;;;4981025;28;20172;-87
2022/10/05 05:31:23;;;;;;;4.90;3.60;;;15.90;41.00;;;;;;4990069;28;20190;-88
2022/10/05 05:34:29;;;;;;;6.20;3.80;;;15.90;39.80;;;;;;5010486;28;20185;-86
2022/10/05 05:37:41;;;;;;;6.13;3.60;;;15.90;37.00;;;;;;5011782;28;20267;-86
2022/10/05 05:40:31;;;;;;;8.30;3.97;;;15.90;35.90;;;;;;4994899;28;20167;-90
2022/10/05 05:43:44;;;;;;;5.97;3.60;;;15.90;37.90;;;;;;5010460;28;20202;-84
2022/10/05 05:46:26;;;;;;;6.33;3.77;;;15.90;37.80;;;;;;5027426;28;20229;-84
2022/10/05 05:48:55;;;;;;;6.50;3.70;;;15.90;38.00;;;;;;4990133;28;20191;-85
2022/10/05 05:51:46;;;;;;;4.80;3.23;;;16.00;37.80;;;;;;4997921;28;20167;-84
2022/10/05 05:54:52;;;;;;;5.43;3.47;;;16.00;37.30;;;;;;4998666;28;20184;-88
2022/10/05 05:57:33;;;;;;;10.30;3.50;;;16.00;36.90;;;;;;4998265;28;20176;-89
2022/10/05 06:00:20;;;;;;;10.23;3.90;;;16.00;37.00;;;;;;4998910;28;20223;-84
2022/10/05 06:03:17;;;;;;;7.30;3.30;;;16.10;35.80;;;;;;4998374;28;20180;-87
2022/10/05 06:06:09;;;;;;;7.37;3.20;;;16.00;35.00;;;;;;5031202;28;20147;-87
2022/10/05 06:08:55;;;;;;;5.40;3.30;;;16.10;34.40;;;;;;4998931;28;20231;-87
2022/10/05 06:12:01;;;;;;;7.57;3.87;;;16.10;30.90;;;;;;4998211;28;20215;-85
2022/10/05 06:14:58;;;;;;;8.53;3.73;;;16.20;29.90;;;;;;4998328;28;20375;-83
2022/10/05 06:17:34;;;;;;;6.90;3.57;;;16.10;30.10;;;;;;4997539;28;20235;-85
2022/10/05 06:20:08;;;;;;;6.03;3.67;;;16.20;31.50;;;;;;5005222;28;20174;-86
2022/10/05 06:22:39;;;;;;;5.33;3.37;;;16.20;31.40;;;;;;5018130;28;20186;-87
2022/10/05 06:25:12;;;;;;;8.53;3.30;;;16.20;29.50;;;;;;5012736;28;20202;-86
2022/10/05 06:28:12;;;;;;;6.13;3.47;;;16.40;26.50;;;;;;4989578;28;20238;-83
2022/10/05 06:31:05;;;;;;;9.73;4.03;;;16.30;26.50;;;;;;4977514;28;20248;-82
2022/10/05 06:34:16;;;;;;;6.17;3.20;;;16.30;27.90;;;;;;4993799;28;20178;-85
2022/10/05 06:37:18;;;;;;;5.80;3.20;;;16.30;24.20;;;;;;4993689;28;20239;-83
2022/10/05 06:43:49;;;;;;;5.93;3.40;;;16.40;26.80;;;;;;4983799;28;20320;-86
2022/10/05 06:46:23;;;;;;;7.97;3.57;;;16.40;25.00;;;;;;4985370;28;20207;-85
2022/10/05 06:49:26;;;;;;;12.40;3.93;;;16.40;26.00;;;;;;5011384;28;20182;-85
2022/10/05 06:55:22;;;;;;;7.20;3.67;;;16.50;22.00;;;;;;4962458;28;20231;-86
2022/10/05 06:58:00;;;;;;;9.80;3.50;;;16.60;21.40;;;;;;4974165;28;20709;-86
2022/10/05 07:03:51;;;;;;;4.50;2.93;;;16.60;21.80;;;;;;4965178;28;20192;-86
2022/10/05 07:06:49;;;;;;;10.23;3.27;;;16.60;21.70;;;;;;4962437;28;20188;-87
2022/10/05 07:09:23;;;;;;;5.70;3.23;;;16.50;23.30;;;;;;4979170;28;20179;-87
2022/10/05 07:11:51;;;;;;;5.43;3.10;;;16.70;21.10;;;;;;4979622;28;20196;-86
2022/10/05 07:15:01;;;;;;;6.90;3.30;;;16.60;22.40;;;;;;5012720;28;20176;-85
2022/10/05 07:17:43;;;;;;;6.07;3.63;;;16.70;20.50;;;;;;4980572;28;20230;-86
2022/10/05 07:20:43;;;;;;;8.47;2.77;;;16.70;21.60;;;;;;4988348;28;20208;-92
2022/10/05 07:23:48;;;;;;;5.93;3.33;;;16.70;20.60;;;;;;4989488;28;20208;-92
2022/10/05 07:26:44;;;;;;;7.43;3.20;;;16.70;19.60;;;;;;4989734;28;20188;-91
2022/10/05 07:29:24;;;;;;;6.80;3.20;;;16.70;21.40;;;;;;4981594;28;20188;-88
2022/10/05 07:32:17;;;;;;;10.03;3.20;;;16.70;21.00;;;;;;4982585;28;20179;-91
2022/10/05 07:34:46;;;;;;;8.27;3.33;;;16.80;19.10;;;;;;4958907;28;20552;-85
2022/10/05 07:40:09;;;;;;;6.30;3.47;;;16.80;20.00;;;;;;4960546;28;20191;-87
2022/10/05 07:43:02;;;;;;;11.37;4.17;;;16.90;17.00;;;;;;4978866;28;20183;-87
2022/10/05 07:45:36;;;;;;;7.63;2.80;;;17.00;17.00;;;;;;4979368;28;20221;-87
2022/10/05 07:48:31;;;;;;;8.87;3.10;;;17.00;16.70;;;;;;4976209;28;20268;-85
2022/10/05 07:51:31;;;;;;;5.90;2.97;;;16.90;17.30;;;;;;4969474;28;20181;-92
2022/10/05 07:54:12;;;;;;;4.77;2.67;;;17.00;15.90;;;;;;4983411;28;20659;-85
2022/10/05 07:56:44;;;;;;;5.60;2.50;;;17.00;16.70;;;;;;4995954;28;20198;-86
2022/10/05 07:59:26;;;;;;;6.80;3.40;;;16.90;16.20;;;;;;4991965;28;20680;-86
2022/10/05 08:02:04;;;;;;;6.60;2.90;;;17.00;17.70;;;;;;4981479;28;20187;-87
2022/10/05 08:04:47;;;;;;;5.10;2.60;;;17.00;16.00;;;;;;4973148;28;20188;-88
2022/10/05 08:07:16;;;;;;;5.83;2.90;;;16.90;17.00;;;;;;4973926;28;20182;-87
2022/10/05 08:09:55;;;;;;;7.70;3.20;;;17.00;17.50;;;;;;4972479;28;20270;-87
2022/10/05 08:12:49;;;;;;;6.13;3.00;;;17.00;16.90;;;;;;4983675;28;20183;-88
2022/10/05 08:15:22;;;;;;;8.57;2.90;;;17.00;19.10;;;;;;4975023;28;20311;-89
2022/10/05 08:18:15;;;;;;;6.37;3.00;;;17.00;20.70;;;;;;4969346;28;20653;-86
2022/10/05 08:20:56;;;;;;;6.00;2.57;;;17.00;20.40;;;;;;4997507;28;20253;-80
2022/10/05 08:24:02;;;;;;;5.87;2.70;;;17.20;20.50;;;;;;4972915;28;20185;-80
2022/10/05 08:26:50;;;;;;;6.37;2.87;;;17.40;11.50;;;;;;4982265;28;20627;-81
2022/10/05 08:29:23;;;;;;;6.77;3.17;;;17.40;10.60;;;;;;4973722;28;20172;-80
2022/10/05 08:31:54;;;;;;;7.60;3.10;;;17.40;10.80;;;;;;4962238;28;20244;-81
2022/10/05 08:34:44;;;;;;;4.40;2.70;;;17.40;9.00;;;;;;4973795;28;20194;-81
2022/10/05 08:37:17;;;;;;;6.90;2.90;;;17.40;8.40;;;;;;4977487;28;20234;-79
2022/10/05 08:40:15;;;;;;;8.80;3.33;;;17.40;12.20;;;;;;4993226;28;20182;-80
2022/10/05 08:42:50;;;;;;;5.23;2.97;;;17.40;9.40;;;;;;5004401;28;20255;-82
2022/10/05 08:45:57;;;;;;;7.20;3.40;;;17.40;14.00;;;;;;5006772;28;20195;-81
2022/10/05 08:48:43;;;;;;;6.57;2.83;;;17.40;12.60;;;;;;4975172;28;20645;-82
2022/10/05 08:51:40;;;;;;;7.50;3.00;;;17.40;15.70;;;;;;4987364;28;20552;-84
2022/10/05 08:54:48;;;;;;;8.57;3.90;;;17.50;12.20;;;;;;4973690;28;20186;-86
2022/10/05 08:57:22;;;;;;;6.77;3.53;;;17.50;12.10;;;;;;4973966;28;20632;-83
2022/10/05 09:00:03;;;;;;;6.40;3.17;;;17.40;15.40;;;;;;4978085;28;20299;-87
2022/10/05 09:02:47;;;;;;;6.80;3.37;;;17.40;13.00;;;;;;4981255;28;20191;-85
2022/10/05 09:05:41;;;;;;;13.13;7.23;;;17.40;14.90;;;;;;4979307;28;20187;-87
2022/10/05 09:08:46;;;;;;;27.17;19.13;;;17.40;15.20;;;;;;4976058;28;20264;-85
2022/10/05 09:11:56;;;;;;;11.33;5.40;;;17.50;15.30;;;;;;4975467;28;20190;-84
2022/10/05 09:14:37;;;;;;;6.87;3.50;;;17.60;12.30;;;;;;4959456;29;20180;-84
2022/10/05 09:17:14;;;;;;;8.27;3.30;;;17.60;13.10;;;;;;4957236;28;20504;-85
2022/10/05 09:19:58;;;;;;;5.50;2.53;;;17.70;10.50;;;;;;4988200;28;20201;-86
2022/10/05 09:22:50;;;;;;;8.23;3.40;;;17.70;9.20;;;;;;4955971;28;20183;-85
2022/10/05 09:25:41;;;;;;;6.40;2.80;;;17.70;9.20;;;;;;4956552;28;20195;-85
2022/10/05 09:28:35;;;;;;;5.50;2.57;;;17.70;9.20;;;;;;4988319;28;20215;-86
2022/10/05 09:31:28;;;;;;;7.13;3.17;;;17.80;8.10;;;;;;4957355;28;20229;-85
2022/10/05 09:34:21;;;;;;;8.10;2.40;;;17.90;6.40;;;;;;4989454;28;20182;-86
2022/10/05 09:36:46;;;;;;;5.83;2.67;;;17.90;6.20;;;;;;4957618;29;20212;-89
2022/10/05 09:39:37;;;;;;;5.23;2.37;;;18.00;5.80;;;;;;4960252;28;20705;-87
2022/10/05 09:42:54;;;;;;;6.60;2.43;;;18.10;1.80;;;;;;4961752;28;20180;-88
2022/10/05 09:45:39;;;;;;;8.33;2.50;;;18.10;1.00;;;;;;4971649;28;20205;-85
2022/10/05 09:48:31;;;;;;;7.30;2.17;;;18.20;1.00;;;;;;4958811;29;20650;-85
2022/10/05 09:51:27;;;;;;;5.03;2.40;;;18.30;1.00;;;;;;4965281;28;20180;-89
2022/10/05 09:54:27;;;;;;;5.40;2.50;;;18.40;1.00;;;;;;4957501;29;20172;-86
2022/10/05 09:57:30;;;;;;;6.43;2.13;;;18.50;1.00;;;;;;4991958;28;20578;-83
2022/10/05 10:00:21;;;;;;;8.20;2.33;;;18.70;1.00;;;;;;4967342;29;20180;-83
2022/10/05 10:03:18;;;;;;;8.70;2.20;;;18.90;1.00;;;;;;4962231;28;20186;-84
2022/10/05 10:05:54;;;;;;;5.97;2.13;;;19.10;1.00;;;;;;4960930;28;20193;-85
2022/10/05 10:08:44;;;;;;;7.60;2.60;;;19.10;1.00;;;;;;4966788;28;20175;-89
2022/10/05 10:11:18;;;;;;;10.03;2.37;;;19.10;1.00;;;;;;4994633;28;20225;-89
2022/10/05 10:14:13;;;;;;;4.47;2.43;;;19.10;1.00;;;;;;4958997;28;20243;-87
2022/10/05 10:16:52;;;;;;;4.87;2.07;;;19.30;1.00;;;;;;4957833;28;20236;-89
2022/10/05 10:19:40;;;;;;;8.43;2.50;;;19.40;1.00;;;;;;5003829;28;20164;-86
2022/10/05 10:22:25;;;;;;;12.47;3.27;;;19.60;1.00;;;;;;4971390;28;20170;-84
2022/10/05 10:25:05;;;;;;;11.03;2.40;;;19.40;1.00;;;;;;4958288;28;20224;-85
2022/10/05 10:28:08;;;;;;;7.13;2.60;;;19.40;1.00;;;;;;4990618;28;20179;-86
2022/10/05 10:31:04;;;;;;;12.03;2.57;;;19.60;1.00;;;;;;4959323;29;20184;-86
2022/10/05 10:33:55;;;;;;;6.20;2.43;;;19.60;1.00;;;;;;4991271;28;20623;-86
2022/10/05 10:36:38;;;;;;;10.03;2.60;;;19.70;1.00;;;;;;4955476;28;20215;-86
2022/10/05 10:39:43;;;;;;;13.57;3.00;;;19.70;1.00;;;;;;4958158;28;20183;-87
2022/10/05 10:42:13;;;;;;;7.70;3.10;;;19.60;1.00;;;;;;4958183;28;20197;-86
2022/10/05 10:44:55;;;;;;;6.10;2.90;;;19.70;1.00;;;;;;4958053;28;20327;-87
2022/10/05 10:47:54;;;;;;;10.23;3.50;;;19.70;1.00;;;;;;4959326;28;20605;-87
2022/10/05 10:50:57;;;;;;;5.57;2.70;;;19.60;1.00;;;;;;4957873;28;20190;-85
2022/10/05 10:53:40;;;;;;;8.77;2.60;;;19.70;1.00;;;;;;4957843;29;20186;-87
2022/10/05 10:56:46;;;;;;;17.10;8.23;;;19.70;1.00;;;;;;4990514;28;20262;-87
2022/10/05 10:59:43;;;;;;;8.40;3.20;;;19.80;1.00;;;;;;4990071;28;20212;-87
2022/10/05 11:02:31;;;;;;;9.77;2.93;;;19.80;1.00;;;;;;4958207;29;20189;-88
2022/10/05 11:05:40;;;;;;;11.10;3.53;;;19.80;1.00;;;;;;4958024;28;20197;-87
2022/10/05 11:08:30;;;;;;;7.63;2.90;;;19.70;1.00;;;;;;4990682;28;20554;-86
2022/10/05 11:11:12;;;;;;;7.73;2.90;;;19.90;1.00;;;;;;4959265;28;20175;-85
2022/10/05 11:14:01;;;;;;;8.10;2.97;;;20.00;1.00;;;;;;4991291;28;20180;-85
2022/10/05 11:16:55;;;;;;;9.20;2.97;;;19.80;1.00;;;;;;4982688;28;20243;-84
2022/10/05 11:20:01;;;;;;;11.27;2.97;;;19.90;1.00;;;;;;5000143;28;20205;-83
2022/10/05 11:23:06;;;;;;;8.40;3.07;;;19.90;1.00;;;;;;4975551;28;20192;-89
2022/10/05 11:25:48;;;;;;;6.97;2.87;;;20.00;1.00;;;;;;4958849;28;20180;-88
2022/10/05 11:28:33;;;;;;;5.83;2.63;;;20.10;1.00;;;;;;4958187;28;20167;-87
2022/10/05 11:31:33;;;;;;;6.10;3.30;;;20.20;1.00;;;;;;4961389;28;20217;-87
2022/10/05 11:34:14;;;;;;;5.87;2.53;;;20.20;1.00;;;;;;4961820;28;20221;-84
2022/10/05 11:37:14;;;;;;;5.73;3.23;;;20.40;1.00;;;;;;4960460;28;20576;-85
2022/10/05 11:40:03;;;;;;;6.00;2.77;;;20.30;1.00;;;;;;4960778;28;20238;-85
2022/10/05 11:42:44;;;;;;;7.07;3.40;;;20.40;1.00;;;;;;4960341;29;20181;-84
2022/10/05 11:45:38;;;;;;;8.93;2.67;;;20.30;1.00;;;;;;4962830;28;20696;-85
2022/10/05 11:48:07;;;;;;;11.20;2.87;;;20.20;1.00;;;;;;4962207;28;20183;-86
2022/10/05 11:51:22;;;;;;;18.03;2.60;;;20.20;1.00;;;;;;4958526;28;20254;-89
2022/10/05 11:54:26;;;;;;;6.47;1.77;;;20.10;1.00;;;;;;4960049;29;20705;-86
2022/10/05 11:57:06;;;;;;;4.13;1.93;;;20.10;1.00;;;;;;4959323;28;20213;-85
2022/10/05 11:59:41;;;;;;;8.30;2.70;;;20.10;1.00;;;;;;4957579;28;20262;-86
2022/10/05 12:02:35;;;;;;;7.07;2.80;;;20.10;1.00;;;;;;4956984;28;20193;-86
2022/10/05 12:05:26;;;;;;;6.63;1.70;;;20.10;1.00;;;;;;4973844;28;20187;-89
2022/10/05 12:07:58;;;;;;;5.43;2.20;;;20.10;1.00;;;;;;4984500;28;20284;-84
2022/10/05 12:10:59;;;;;;;6.33;1.90;;;20.10;1.00;;;;;;5021700;28;20173;-86
2022/10/05 12:13:53;;;;;;;9.10;2.30;;;20.10;1.00;;;;;;4979006;28;20184;-88
2022/10/05 12:16:22;;;;;;;8.47;2.10;;;20.10;1.00;;;;;;4985247;28;20214;-86
2022/10/05 12:19:12;;;;;;;4.00;1.63;;;20.10;1.00;;;;;;5013901;28;20276;-87
2022/10/05 12:22:17;;;;;;;6.17;1.70;;;20.20;1.00;;;;;;5024370;28;20326;-86
2022/10/05 12:25:17;;;;;;;13.20;2.23;;;20.20;1.00;;;;;;5015780;28;20186;-86
2022/10/05 12:27:46;;;;;;;4.43;1.87;;;20.30;1.00;;;;;;4991957;28;20249;-85
2022/10/05 12:30:47;;;;;;;10.20;2.23;;;20.40;1.00;;;;;;4994202;28;20229;-86
2022/10/05 12:33:29;;;;;;;3.37;1.83;;;20.30;1.00;;;;;;5004769;28;20236;-86
2022/10/05 12:36:18;;;;;;;7.47;1.97;;;20.30;1.00;;;;;;4995799;28;20210;-85
2022/10/05 12:38:56;;;;;;;4.33;1.90;;;20.20;1.00;;;;;;5005756;28;20190;-86
2022/10/05 12:41:31;;;;;;;3.90;1.83;;;20.30;1.00;;;;;;5001731;28;20185;-88
2022/10/05 12:44:16;;;;;;;3.57;1.97;;;20.20;1.00;;;;;;5001080;28;20171;-86
2022/10/05 12:47:10;;;;;;;6.60;2.40;;;20.20;1.00;;;;;;4999719;28;20738;-86
2022/10/05 12:49:53;;;;;;;11.53;2.53;;;19.90;1.00;;;;;;4996247;28;20178;-92
2022/10/05 12:52:57;;;;;;;5.43;2.13;;;19.60;1.00;;;;;;4980580;28;20566;-87
2022/10/05 12:55:53;;;;;;;8.53;2.67;;;19.70;1.00;;;;;;4979737;28;20238;-85
2022/10/05 12:58:44;;;;;;;5.83;2.10;;;19.70;1.00;;;;;;4979703;28;20185;-87
2022/10/05 13:01:38;;;;;;;5.70;2.10;;;19.60;1.00;;;;;;4976783;28;20183;-88
2022/10/05 13:04:40;;;;;;;6.17;2.33;;;19.60;1.00;;;;;;4978910;28;20179;-88
2022/10/05 13:07:30;;;;;;;13.47;2.40;;;19.50;1.00;;;;;;4976298;28;20182;-86
2022/10/05 13:10:34;;;;;;;9.73;2.63;;;19.40;1.00;;;;;;4995855;28;20169;-86
2022/10/05 13:13:11;;;;;;;10.97;2.33;;;19.20;1.00;;;;;;4998581;28;20178;-88
2022/10/05 13:16:08;;;;;;;10.57;2.63;;;19.00;1.00;;;;;;5002043;28;20242;-87
2022/10/05 13:18:53;;;;;;;6.43;1.80;;;18.80;1.00;;;;;;4991907;28;20170;-87
2022/10/05 13:22:11;;;;;;;8.07;2.77;;;18.70;1.00;;;;;;5007455;28;20231;-87
2022/10/05 13:24:58;;;;;;;9.03;2.30;;;18.60;1.00;;;;;;4995168;28;20175;-86
2022/10/05 13:27:29;;;;;;;7.13;1.97;;;18.60;1.00;;;;;;5002831;28;20176;-88
2022/10/05 13:30:18;;;;;;;7.93;1.93;;;18.50;1.00;;;;;;4981078;28;20202;-86
2022/10/05 13:33:05;;;;;;;5.20;1.60;;;18.40;1.00;;;;;;4980092;28;20171;-85
2022/10/05 13:35:57;;;;;;;7.70;2.00;;;18.40;1.00;;;;;;4998351;28;20211;-86
2022/10/05 13:38:27;;;;;;;4.97;1.97;;;18.30;1.00;;;;;;4994281;28;20628;-86
2022/10/05 13:41:26;;;;;;;3.97;1.60;;;18.30;1.00;;;;;;4981471;28;20245;-86
2022/10/05 13:44:04;;;;;;;7.73;1.90;;;18.20;1.00;;;;;;4991802;28;20218;-86
2022/10/05 13:47:00;;;;;;;8.37;2.00;;;18.10;1.00;;;;;;5007690;28;20211;-88
2022/10/05 13:50:12;;;;;;;2.80;1.70;;;18.10;1.00;;;;;;4977066;28;20173;-85
2022/10/05 13:53:23;;;;;;;3.93;1.60;;;18.20;1.00;;;;;;4998136;28;20156;-89
2022/10/05 13:55:59;;;;;;;2.23;1.63;;;18.10;1.00;;;;;;5010747;28;20216;-85
2022/10/05 13:58:38;;;;;;;4.30;1.50;;;18.10;1.00;;;;;;5015765;28;20176;-87
2022/10/05 14:01:31;;;;;;;3.37;1.90;;;18.20;1.00;;;;;;4988122;28;20190;-87
2022/10/05 14:04:19;;;;;;;4.03;1.67;;;18.30;1.00;;;;;;4994358;28;20179;-89
2022/10/05 14:10:24;;;;;;;5.23;1.83;;;18.30;1.00;;;;;;4982432;28;20223;-90
2022/10/05 14:12:54;;;;;;;4.37;2.00;;;18.10;1.00;;;;;;4998683;28;20179;-86
2022/10/05 14:15:29;;;;;;;4.53;2.27;;;18.20;1.00;;;;;;5000111;28;20217;-86
2022/10/05 14:17:54;;;;;;;4.57;1.53;;;18.30;1.00;;;;;;5002277;28;20187;-89
2022/10/05 14:20:30;;;;;;;13.57;5.57;;;18.40;1.00;;;;;;5000689;28;20206;-83
2022/10/05 14:23:04;;;;;;;8.27;5.30;;;18.50;1.00;;;;;;5001149;28;20155;-84
2022/10/05 14:25:49;;;;;;;6.30;3.10;;;18.50;1.00;;;;;;5001323;28;20164;-81
2022/10/05 14:28:37;;;;;;;7.23;2.53;;;18.40;1.00;;;;;;4985672;28;20170;-87
2022/10/05 14:31:25;;;;;;;3.50;2.17;;;18.50;1.00;;;;;;5001611;28;20183;-89
2022/10/05 14:33:51;;;;;;;3.80;1.93;;;18.60;1.00;;;;;;5001585;28;20199;-88
2022/10/05 14:36:34;;;;;;;6.13;2.30;;;18.60;1.00;;;;;;5000637;28;20228;-86
2022/10/05 14:39:03;;;;;;;3.83;1.70;;;18.80;1.00;;;;;;4998082;28;20168;-86
2022/10/05 14:41:36;;;;;;;5.13;2.27;;;18.90;1.00;;;;;;4991576;28;20180;-87
2022/10/05 14:44:28;;;;;;;4.23;2.23;;;19.00;1.00;;;;;;4980102;28;20173;-85